sim
Sign-in with your pilot id or email,
or register
Callsign
Passwort

Schedule Details

Flight Number: DLH1216 (1)
Departure: Frankfurt Airport (EDDF) at 10:35
Arrival: Geneva International Airport (LSGG) at 11:40
Route: Lufthansa Passenger Schedule. Enter filed route here before submitting Pirep.

Weather Information
Getting current METAR information for EDDF 101920Z 36005KT 9999 -RA FEW019 SCT040 10/07 Q1011 NOSIG
Getting current METAR information for LSGG 101920Z 24004KT 200V280 CAVOK 12/03 Q1013 NOSIG

Schedule Frequency

Route Map